BE-0009 weather

CLOSED Jan Palfijn Hospital Heliport
Gent, East Flanders, Belgium

Public forecast

Using degrees Celsius for public forecast. Weather courtesy of forecast.io.

Closest aviation weather report (METAR) to Jan Palfijn Hospital Heliport

Closest report is Chièvres Air Base, 28.8 nm (53.3 km) S. Retrieved 2020/07/02 10:55 UTC (20 minutes ago):

EBCV 021055Z AUTO 24012KT 9999 BKN041/// 19/12 Q1012 BLU

Closest aviation forecast (TAF) to Jan Palfijn Hospital Heliport

Forecast is more than 12 hours old.

Closest forecast is Chièvres Air Base, 28.8 nm (53.3 km) S. Retrieved 2020/06/27 19:09 UTC (5 days ago):

TAF TAF EBCV 271604Z 2719/2807 25012G25KT SCT030 SCT200 PROB30 TEMPO 2720/2803 6000 -RA BKN020